San Rafael — WCW8517 — position and weather

sailwx.info

Track history (hours):
 
Tides and Currents Weather Stations Pressure Air Temp Water Temp Dewpoint Dewpoint Depression Visibility Wind Speed Wind Dir Waves Ship Positions

San Rafael

Owner: BUFFALO MARINE SERVICE INC, HOUSTON, TX. More information available from US FCC via Universal Licensing System and Coast Guard Vessel Documentation Center.

Last reported at 2018-Feb-24 04:44 UTC. Time now 2018-Feb-24 07:48 UTC.
Position N 29°24' W 094°45'.

Length 18 m.

Type: Tug. MMSI: 366941860.

Date/timePositionNaut miles runAvg speedWind from/ knotsBaromVisibWave heightAir tempDewpointWater temp
2018-Feb-24 04:44N 29°24' W 094°45'0 0.0
2018-Feb-24 03:55N 29°24' W 094°45'0 0.0
2018-Feb-24 03:21N 29°24' W 094°45'8 1.5
2018-Feb-23 22:06N 29°29' W 094°52'2 6.2
2018-Feb-23 21:48N 29°31' W 094°53'2 6.0
2018-Feb-23 21:30N 29°32' W 094°54'3 6.5
2018-Feb-23 21:00N 29°35' W 094°56'3 5.1
2018-Feb-23 20:29N 29°37' W 094°58'3 5.5
2018-Feb-23 20:00N 29°37' W 095°01'0 0.5
2018-Feb-23 19:31N 29°37' W 095°02'0 0.0
2018-Feb-23 19:01N 29°37' W 095°02'0 0.0
2018-Feb-23 18:30N 29°37' W 095°02'0 0.0
2018-Feb-23 18:01N 29°37' W 095°02'0 0.0
2018-Feb-23 17:31N 29°37' W 095°02'0 0.0
2018-Feb-23 17:00N 29°37' W 095°02'0 0.0
2018-Feb-23 16:31N 29°37' W 095°02'0 0.0
2018-Feb-23 16:01N 29°37' W 095°02'0 0.0
2018-Feb-23 15:30N 29°37' W 095°02'0 0.0
2018-Feb-23 15:00N 29°37' W 095°02'0 0.0
2018-Feb-23 14:30N 29°37' W 095°02'0 0.0
2018-Feb-23 14:00N 29°37' W 095°02'0 0.0
2018-Feb-23 13:31N 29°37' W 095°02'0 0.0
2018-Feb-23 13:00N 29°37' W 095°02'0 0.0
2018-Feb-23 12:31N 29°37' W 095°02'0 0.0
2018-Feb-23 12:00N 29°37' W 095°02'0 0.0
2018-Feb-23 11:30N 29°37' W 095°02'0 0.0
2018-Feb-23 11:00N 29°37' W 095°02'0 0.0
2018-Feb-23 10:30N 29°37' W 095°02'0 0.0
2018-Feb-23 10:00N 29°37' W 095°02'0 0.0
2018-Feb-23 09:30N 29°37' W 095°02'0 0.0
2018-Feb-23 09:00N 29°37' W 095°02'0 0.0
2018-Feb-23 08:30N 29°37' W 095°02'0 0.0
2018-Feb-23 08:00N 29°37' W 095°02'0 0.0
2018-Feb-23 07:30N 29°37' W 095°02'0 0.0
2018-Feb-23 07:00N 29°37' W 095°02'0 0.0
2018-Feb-23 06:30N 29°37' W 095°02'0 0.0
2018-Feb-23 06:00N 29°37' W 095°02'0 0.0
2018-Feb-23 05:30N 29°37' W 095°02'0 0.0
2018-Feb-23 05:00N 29°37' W 095°02'0 0.0
2018-Feb-23 04:30N 29°37' W 095°02'0 0.0
2018-Feb-23 04:00N 29°37' W 095°02'0 0.0
2018-Feb-23 03:30N 29°37' W 095°02'0 0.2
2018-Feb-23 03:00N 29°37' W 095°01'0 0.0
2018-Feb-23 02:30N 29°37' W 095°01'0 0.1
2018-Feb-23 02:00N 29°37' W 095°02'0 0.0
2018-Feb-23 01:30N 29°37' W 095°02'0 0.0
2018-Feb-23 01:00N 29°37' W 095°02'0 0.0
2018-Feb-23 00:29N 29°37' W 095°02'0 0.0
2018-Feb-23 00:00N 29°37' W 095°02'0 0.0
2018-Feb-22 23:30N 29°37' W 095°02'0 0.0
2018-Feb-22 23:00N 29°37' W 095°02'0 0.0
2018-Feb-22 22:30N 29°37' W 095°02'0 0.0
2018-Feb-22 22:00N 29°37' W 095°02'0 0.0
2018-Feb-22 21:30N 29°37' W 095°02'0 0.0
2018-Feb-22 21:00N 29°37' W 095°02'0 0.0
2018-Feb-22 20:30N 29°37' W 095°02'0 0.0
2018-Feb-22 20:00N 29°37' W 095°02'0 0.0
2018-Feb-22 19:30N 29°37' W 095°02'0 0.0
2018-Feb-22 19:00N 29°37' W 095°02'0 0.0
2018-Feb-22 18:31N 29°37' W 095°02'0 0.0
2018-Feb-22 17:59N 29°37' W 095°02'0 0.0
2018-Feb-22 17:30N 29°37' W 095°02'0 0.0
2018-Feb-22 17:00N 29°37' W 095°02'0 0.0
2018-Feb-22 16:30N 29°37' W 095°02'0 0.0
2018-Feb-22 16:00N 29°37' W 095°02'0 0.0
2018-Feb-22 15:30N 29°37' W 095°02'0 0.0
2018-Feb-22 15:00N 29°37' W 095°02'0 0.0
2018-Feb-22 14:30N 29°37' W 095°02'0 0.0
2018-Feb-22 14:00N 29°37' W 095°02'0 0.0
2018-Feb-22 13:30N 29°37' W 095°02'0 0.0
2018-Feb-22 13:00N 29°37' W 095°02'0 0.0
2018-Feb-22 12:30N 29°37' W 095°02'0 0.0
2018-Feb-22 12:00N 29°37' W 095°02'0 0.0
2018-Feb-22 11:30N 29°37' W 095°02'0 0.0
2018-Feb-22 11:00N 29°37' W 095°02'0 0.0
2018-Feb-22 10:30N 29°37' W 095°02'0 0.0
2018-Feb-22 10:00N 29°37' W 095°02'0 0.0
2018-Feb-22 09:30N 29°37' W 095°02'0 0.0
2018-Feb-22 09:00N 29°37' W 095°02'0 0.0
2018-Feb-22 08:30N 29°37' W 095°02'0 0.0
2018-Feb-22 07:58N 29°37' W 095°02'0 0.0
2018-Feb-22 07:30N 29°37' W 095°02'0 0.0
2018-Feb-22 07:00N 29°37' W 095°02'0 0.0
2018-Feb-22 06:30N 29°37' W 095°02'0 0.0
2018-Feb-22 06:00N 29°37' W 095°02'0 0.0
2018-Feb-22 05:30N 29°37' W 095°02'0 0.0
2018-Feb-22 05:00N 29°37' W 095°02'0 0.0
2018-Feb-22 04:30N 29°37' W 095°02'0 0.0
2018-Feb-22 04:00N 29°37' W 095°02'0 0.0
2018-Feb-22 03:30N 29°37' W 095°02'0 0.0
2018-Feb-22 03:00N 29°37' W 095°02'0 0.1
2018-Feb-22 02:30N 29°37' W 095°02'0 0.0
2018-Feb-22 02:00N 29°37' W 095°02'0 0.0
2018-Feb-22 01:30N 29°37' W 095°02'0 0.0
2018-Feb-22 01:00N 29°37' W 095°02'0 0.0
2018-Feb-22 00:30N 29°37' W 095°02'0 0.0
2018-Feb-22 00:01N 29°37' W 095°02'0 0.2
2018-Feb-21 23:30N 29°37' W 095°02'0 0.1
2018-Feb-21 23:00N 29°37' W 095°01'3 6.4
2018-Feb-21 22:30N 29°37' W 094°58'3 6.5
2018-Feb-21 22:00N 29°40' W 094°59'1 0.2
2018-Feb-21 14:35N 29°41' W 095°00'0 0.1
2018-Feb-21 14:30N 29°41' W 095°00'0 0.0
2018-Feb-21 14:00N 29°41' W 095°00'0 0.0
2018-Feb-21 13:29N 29°41' W 095°00'0 0.0
2018-Feb-21 13:00N 29°41' W 095°00'0 0.0
2018-Feb-21 12:29N 29°41' W 095°00'0 0.0
2018-Feb-21 12:00N 29°41' W 095°00'0 0.0
2018-Feb-21 11:29N 29°41' W 095°00'0 0.0
2018-Feb-21 11:00N 29°41' W 095°00'0 0.0
2018-Feb-21 10:29N 29°41' W 095°00'0 0.0
2018-Feb-21 09:59N 29°41' W 095°00'0 0.0
2018-Feb-21 09:28N 29°41' W 095°00'0 0.0
2018-Feb-21 08:47N 29°41' W 095°00'0 0.0
2018-Feb-21 08:30N 29°41' W 095°00'0 0.0
2018-Feb-21 07:53N 29°41' W 095°00'1 2.0
2018-Feb-21 07:30N 29°41' W 094°59'3 6.9
2018-Feb-21 07:00N 29°44' W 095°02'1 0.3
2018-Feb-21 02:45N 29°44' W 095°03'7 0.7
2018-Feb-20 16:56N 29°45' W 095°11'5 0.6
2018-Feb-20 08:22N 29°46' W 095°06'0 0.1
2018-Feb-20 08:00N 29°47' W 095°06'0 0.0
2018-Feb-20 07:30N 29°47' W 095°06'0 0.5
2018-Feb-20 06:45N 29°46' W 095°06'1 3.6
2018-Feb-20 06:30N 29°46' W 095°05'0 0.7
2018-Feb-20 05:58N 29°46' W 095°05'2 3.0
2018-Feb-20 05:11N 29°44' W 095°03'0 0.0
2018-Feb-20 04:51N 29°44' W 095°03'0 0.0
2018-Feb-20 04:25N 29°44' W 095°03'0 0.0
2018-Feb-20 03:58N 29°44' W 095°03'0 0.0
2018-Feb-20 02:24N 29°44' W 095°03'0 0.0
2018-Feb-20 01:54N 29°44' W 095°03'0 0.0
2018-Feb-20 01:29N 29°44' W 095°03'0 0.0
2018-Feb-20 00:56N 29°44' W 095°03'0 0.0
2018-Feb-20 00:29N 29°44' W 095°03'0 0.0
2018-Feb-19 23:42N 29°44' W 095°03'0 0.0
2018-Feb-19 23:30N 29°44' W 095°03'0 0.0
2018-Feb-19 22:48N 29°44' W 095°03'0 0.0
2018-Feb-19 22:28N 29°44' W 095°03'0 0.0
2018-Feb-19 21:56N 29°44' W 095°03'0 0.0
2018-Feb-19 21:16N 29°44' W 095°03'0 0.0
2018-Feb-19 21:00N 29°44' W 095°03'0 0.1
2018-Feb-19 19:48N 29°44' W 095°03'4 0.6
2018-Feb-19 13:53N 29°46' W 095°06'0 0.0
2018-Feb-19 12:29N 29°46' W 095°06'0 0.0
2018-Feb-19 10:15N 29°46' W 095°06'0 0.2
2018-Feb-19 09:52N 29°46' W 095°06'0 0.0
2018-Feb-19 09:27N 29°46' W 095°06'0 0.0
2018-Feb-19 08:58N 29°46' W 095°06'0 0.0
2018-Feb-19 08:18N 29°46' W 095°06'0 0.0
2018-Feb-19 02:12N 29°46' W 095°06'0 1.2
2018-Feb-19 01:54N 29°46' W 095°06'2 4.8
2018-Feb-19 01:29N 29°45' W 095°04'2 0.2
2018-Feb-18 18:17N 29°44' W 095°03'0 0.0
2018-Feb-18 17:16N 29°44' W 095°03'0 0.0
2018-Feb-18 17:00N 29°44' W 095°03'0 0.0
2018-Feb-18 16:12N 29°44' W 095°03'0 0.0
2018-Feb-18 15:25N 29°44' W 095°03'0 0.0
2018-Feb-18 14:58N 29°44' W 095°03'0 0.3
2018-Feb-18 14:30N 29°44' W 095°03'0 0.0
2018-Feb-18 13:58N 29°44' W 095°03'0 0.0
2018-Feb-18 12:31N 29°44' W 095°03'0 0.0
2018-Feb-18 10:21N 29°44' W 095°03'0 0.0
2018-Feb-18 09:43N 29°44' W 095°03'0 0.0
2018-Feb-18 09:26N 29°44' W 095°03'0 0.0
2018-Feb-18 07:40N 29°44' W 095°03'0 1.7
2018-Feb-18 07:25N 29°44' W 095°03'3 6.7
2018-Feb-18 06:59N 29°46' W 095°06'1 0.1
2018-Feb-18 02:21N 29°46' W 095°06'0 0.0
2018-Feb-18 01:53N 29°46' W 095°06'0 0.0
2018-Feb-18 01:30N 29°46' W 095°06'0 0.0
2018-Feb-18 01:00N 29°46' W 095°06'0 0.0
2018-Feb-17 22:34N 29°47' W 095°06'0 0.2
2018-Feb-17 22:29N 29°47' W 095°06'0 0.0
2018-Feb-17 18:05N 29°47' W 095°06'0 1.3
2018-Feb-17 18:00N 29°46' W 095°06'0 0.0
2018-Feb-17 17:24N 29°46' W 095°06'0 0.0
2018-Feb-17 16:50N 29°46' W 095°06'0 0.0
2018-Feb-17 16:27N 29°46' W 095°06'0 0.0
2018-Feb-17 15:57N 29°46' W 095°06'0 0.0
2018-Feb-17 15:30N 29°46' W 095°06'0 0.0
2018-Feb-17 14:59N 29°46' W 095°06'0 0.0
2018-Feb-17 14:30N 29°46' W 095°06'0 0.0
2018-Feb-17 14:00N 29°46' W 095°06'0 0.0
2018-Feb-17 13:25N 29°46' W 095°06'0 0.0
2018-Feb-17 12:59N 29°46' W 095°06'0 0.1
2018-Feb-17 12:12N 29°47' W 095°06'1 2.4
2018-Feb-17 11:58N 29°46' W 095°06'1 0.1
2018-Feb-16 22:54N 29°45' W 095°06'1 2.4
2018-Feb-16 22:25N 29°47' W 095°06'0 0.1
2018-Feb-16 22:00N 29°46' W 095°06'0 0.1
2018-Feb-16 21:29N 29°47' W 095°06'0 0.0
2018-Feb-16 20:58N 29°47' W 095°06'0 0.0
2018-Feb-16 20:26N 29°47' W 095°06'0 0.0
2018-Feb-16 19:25N 29°47' W 095°06'0 0.0
2018-Feb-16 18:54N 29°47' W 095°06'0 0.6
2018-Feb-16 18:30N 29°46' W 095°06'1 0.4
2018-Feb-16 16:45N 29°46' W 095°05'1 2.1
2018-Feb-16 16:26N 29°46' W 095°06'0 0.0
2018-Feb-16 13:32N 29°46' W 095°06'3 1.3
2018-Feb-16 11:26N 29°44' W 095°03'1 1.4
2018-Feb-16 11:00N 29°44' W 095°03'0 0.0
2018-Feb-16 10:30N 29°44' W 095°03'0 0.0
2018-Feb-16 09:58N 29°44' W 095°03'0 0.0
2018-Feb-16 09:29N 29°44' W 095°03'0 0.0
2018-Feb-16 09:00N 29°44' W 095°03'0 0.0
2018-Feb-16 08:27N 29°44' W 095°03'0 0.0
2018-Feb-16 07:59N 29°44' W 095°03'0 0.0
2018-Feb-16 07:30N 29°44' W 095°03'0 0.0
2018-Feb-16 07:00N 29°44' W 095°03'0 0.0
2018-Feb-16 06:30N 29°44' W 095°03'0 0.0
2018-Feb-16 05:59N 29°44' W 095°03'0 0.0
2018-Feb-16 05:30N 29°44' W 095°03'0 0.0
2018-Feb-16 05:00N 29°44' W 095°03'0 0.0
2018-Feb-16 04:30N 29°44' W 095°03'0 0.0
2018-Feb-16 04:00N 29°44' W 095°03'0 0.0
2018-Feb-16 03:29N 29°44' W 095°03'0 0.0
2018-Feb-16 02:59N 29°44' W 095°03'0 0.0
2018-Feb-16 02:30N 29°44' W 095°03'0 0.0
2018-Feb-16 02:00N 29°44' W 095°03'0 0.0
2018-Feb-16 01:30N 29°44' W 095°03'0 0.0
2018-Feb-16 01:00N 29°44' W 095°03'0 0.0
2018-Feb-16 00:28N 29°44' W 095°03'0 0.0
2018-Feb-15 23:59N 29°44' W 095°03'0 0.0
2018-Feb-15 23:19N 29°44' W 095°03'0 0.0
2018-Feb-15 17:35N 29°44' W 095°03'0 0.0
2018-Feb-15 17:30N 29°44' W 095°03'0 0.0
2018-Feb-15 16:59N 29°44' W 095°03'0 0.0
2018-Feb-15 16:30N 29°44' W 095°03'0 0.0
2018-Feb-15 15:59N 29°44' W 095°03'0 0.0
2018-Feb-15 15:29N 29°44' W 095°03'0 0.0
2018-Feb-15 14:53N 29°44' W 095°03'0 0.0
2018-Feb-15 14:29N 29°44' W 095°03'0 0.0
2018-Feb-15 14:00N 29°44' W 095°03'0 0.0
2018-Feb-15 13:28N 29°44' W 095°03'0 0.0
2018-Feb-15 12:49N 29°44' W 095°03'0 0.0
2018-Feb-15 12:20N 29°44' W 095°03'0 0.0
2018-Feb-15 11:56N 29°44' W 095°03'0 0.0
2018-Feb-15 11:09N 29°44' W 095°03'0 0.0
2018-Feb-15 11:00N 29°44' W 095°03'0 0.0
2018-Feb-15 10:30N 29°44' W 095°03'0 0.0
2018-Feb-15 10:00N 29°44' W 095°03'0 0.0
2018-Feb-15 09:30N 29°44' W 095°03'0 0.0
2018-Feb-15 09:00N 29°44' W 095°03'0 0.0
2018-Feb-15 08:30N 29°44' W 095°03'0 0.0
2018-Feb-15 07:59N 29°44' W 095°03'0 0.0
2018-Feb-15 07:30N 29°44' W 095°03'0 0.0
2018-Feb-15 06:53N 29°44' W 095°03'0 0.0
2018-Feb-15 06:30N 29°44' W 095°03'0 0.0
2018-Feb-15 06:00N 29°44' W 095°03'0 0.0
2018-Feb-15 05:30N 29°44' W 095°03'0 0.0
2018-Feb-15 05:00N 29°44' W 095°03'0 0.0
2018-Feb-15 04:29N 29°44' W 095°03'0 0.0
2018-Feb-15 04:00N 29°44' W 095°03'0 0.0
2018-Feb-15 03:27N 29°44' W 095°03'0 0.0
2018-Feb-15 03:00N 29°44' W 095°03'0 0.0
2018-Feb-15 02:29N 29°44' W 095°03'0 0.1
2018-Feb-15 01:51N 29°44' W 095°03'0 0.2
2018-Feb-15 01:14N 29°44' W 095°03'0 0.3
2018-Feb-15 00:55N 29°44' W 095°03'2 3.3
2018-Feb-15 00:25N 29°43' W 095°01'2 4.0
2018-Feb-15 00:00N 29°42' W 094°60'2 4.9
2018-Feb-14 23:30N 29°40' W 094°58'3 5.4
2018-Feb-14 23:00N 29°37' W 094°57'3 5.4
2018-Feb-14 22:30N 29°35' W 094°56'3 5.6
2018-Feb-14 22:00N 29°33' W 094°54'12 5.4
2018-Feb-14 19:46N 29°22' W 094°48'1 4.5
2018-Feb-14 19:30N 29°22' W 094°50'2 5.1
2018-Feb-14 19:00N 29°23' W 094°53'1 2.0
2018-Feb-14 18:24N 29°22' W 094°53'  
Track history (hours):
 
Tides and Currents Weather Stations Pressure Air Temp Water Temp Dewpoint Dewpoint Depression Visibility Wind Speed Wind Dir Waves Ship Positions

San Rafael

Owner: BUFFALO MARINE SERVICE INC, HOUSTON, TX. More information available from US FCC via Universal Licensing System and Coast Guard Vessel Documentation Center.

Last reported at 2018-Feb-24 04:44 UTC. Time now 2018-Feb-24 07:48 UTC.
Position N 29°24' W 094°45'.

Length 18 m.

Type: Tug. MMSI: 366941860.

Date/timePositionNaut miles runAvg speedWind from/ knotsBaromVisibWave heightAir tempDewpointWater temp
2018-Feb-24 04:44N 29°24' W 094°45'0 0.0
2018-Feb-24 03:55N 29°24' W 094°45'0 0.0
2018-Feb-24 03:21N 29°24' W 094°45'8 1.5
2018-Feb-23 22:06N 29°29' W 094°52'2 6.2
2018-Feb-23 21:48N 29°31' W 094°53'2 6.0
2018-Feb-23 21:30N 29°32' W 094°54'3 6.5
2018-Feb-23 21:00N 29°35' W 094°56'3 5.1
2018-Feb-23 20:29N 29°37' W 094°58'3 5.5
2018-Feb-23 20:00N 29°37' W 095°01'0 0.5
2018-Feb-23 19:31N 29°37' W 095°02'0 0.0
2018-Feb-23 19:01N 29°37' W 095°02'0 0.0
2018-Feb-23 18:30N 29°37' W 095°02'0 0.0
2018-Feb-23 18:01N 29°37' W 095°02'0 0.0
2018-Feb-23 17:31N 29°37' W 095°02'0 0.0
2018-Feb-23 17:00N 29°37' W 095°02'0 0.0
2018-Feb-23 16:31N 29°37' W 095°02'0 0.0
2018-Feb-23 16:01N 29°37' W 095°02'0 0.0
2018-Feb-23 15:30N 29°37' W 095°02'0 0.0
2018-Feb-23 15:00N 29°37' W 095°02'0 0.0
2018-Feb-23 14:30N 29°37' W 095°02'0 0.0
2018-Feb-23 14:00N 29°37' W 095°02'0 0.0
2018-Feb-23 13:31N 29°37' W 095°02'0 0.0
2018-Feb-23 13:00N 29°37' W 095°02'0 0.0
2018-Feb-23 12:31N 29°37' W 095°02'0 0.0
2018-Feb-23 12:00N 29°37' W 095°02'0 0.0
2018-Feb-23 11:30N 29°37' W 095°02'0 0.0
2018-Feb-23 11:00N 29°37' W 095°02'0 0.0
2018-Feb-23 10:30N 29°37' W 095°02'0 0.0
2018-Feb-23 10:00N 29°37' W 095°02'0 0.0
2018-Feb-23 09:30N 29°37' W 095°02'0 0.0
2018-Feb-23 09:00N 29°37' W 095°02'0 0.0
2018-Feb-23 08:30N 29°37' W 095°02'0 0.0
2018-Feb-23 08:00N 29°37' W 095°02'0 0.0
2018-Feb-23 07:30N 29°37' W 095°02'0 0.0
2018-Feb-23 07:00N 29°37' W 095°02'0 0.0
2018-Feb-23 06:30N 29°37' W 095°02'0 0.0
2018-Feb-23 06:00N 29°37' W 095°02'0 0.0
2018-Feb-23 05:30N 29°37' W 095°02'0 0.0
2018-Feb-23 05:00N 29°37' W 095°02'0 0.0
2018-Feb-23 04:30N 29°37' W 095°02'0 0.0
2018-Feb-23 04:00N 29°37' W 095°02'0 0.0
2018-Feb-23 03:30N 29°37' W 095°02'0 0.2
2018-Feb-23 03:00N 29°37' W 095°01'0 0.0
2018-Feb-23 02:30N 29°37' W 095°01'0 0.1
2018-Feb-23 02:00N 29°37' W 095°02'0 0.0
2018-Feb-23 01:30N 29°37' W 095°02'0 0.0
2018-Feb-23 01:00N 29°37' W 095°02'0 0.0
2018-Feb-23 00:29N 29°37' W 095°02'0 0.0
2018-Feb-23 00:00N 29°37' W 095°02'0 0.0
2018-Feb-22 23:30N 29°37' W 095°02'0 0.0
2018-Feb-22 23:00N 29°37' W 095°02'0 0.0
2018-Feb-22 22:30N 29°37' W 095°02'0 0.0
2018-Feb-22 22:00N 29°37' W 095°02'0 0.0
2018-Feb-22 21:30N 29°37' W 095°02'0 0.0
2018-Feb-22 21:00N 29°37' W 095°02'0 0.0
2018-Feb-22 20:30N 29°37' W 095°02'0 0.0
2018-Feb-22 20:00N 29°37' W 095°02'0 0.0
2018-Feb-22 19:30N 29°37' W 095°02'0 0.0
2018-Feb-22 19:00N 29°37' W 095°02'0 0.0
2018-Feb-22 18:31N 29°37' W 095°02'0 0.0
2018-Feb-22 17:59N 29°37' W 095°02'0 0.0
2018-Feb-22 17:30N 29°37' W 095°02'0 0.0
2018-Feb-22 17:00N 29°37' W 095°02'0 0.0
2018-Feb-22 16:30N 29°37' W 095°02'0 0.0
2018-Feb-22 16:00N 29°37' W 095°02'0 0.0
2018-Feb-22 15:30N 29°37' W 095°02'0 0.0
2018-Feb-22 15:00N 29°37' W 095°02'0 0.0
2018-Feb-22 14:30N 29°37' W 095°02'0 0.0
2018-Feb-22 14:00N 29°37' W 095°02'0 0.0
2018-Feb-22 13:30N 29°37' W 095°02'0 0.0
2018-Feb-22 13:00N 29°37' W 095°02'0 0.0
2018-Feb-22 12:30N 29°37' W 095°02'0 0.0
2018-Feb-22 12:00N 29°37' W 095°02'0 0.0
2018-Feb-22 11:30N 29°37' W 095°02'0 0.0
2018-Feb-22 11:00N 29°37' W 095°02'0 0.0
2018-Feb-22 10:30N 29°37' W 095°02'0 0.0
2018-Feb-22 10:00N 29°37' W 095°02'0 0.0
2018-Feb-22 09:30N 29°37' W 095°02'0 0.0
2018-Feb-22 09:00N 29°37' W 095°02'0 0.0
2018-Feb-22 08:30N 29°37' W 095°02'0 0.0
2018-Feb-22 07:58N 29°37' W 095°02'0 0.0
2018-Feb-22 07:30N 29°37' W 095°02'0 0.0
2018-Feb-22 07:00N 29°37' W 095°02'0 0.0
2018-Feb-22 06:30N 29°37' W 095°02'0 0.0
2018-Feb-22 06:00N 29°37' W 095°02'0 0.0
2018-Feb-22 05:30N 29°37' W 095°02'0 0.0
2018-Feb-22 05:00N 29°37' W 095°02'0 0.0
2018-Feb-22 04:30N 29°37' W 095°02'0 0.0
2018-Feb-22 04:00N 29°37' W 095°02'0 0.0
2018-Feb-22 03:30N 29°37' W 095°02'0 0.0
2018-Feb-22 03:00N 29°37' W 095°02'0 0.1
2018-Feb-22 02:30N 29°37' W 095°02'0 0.0
2018-Feb-22 02:00N 29°37' W 095°02'0 0.0
2018-Feb-22 01:30N 29°37' W 095°02'0 0.0
2018-Feb-22 01:00N 29°37' W 095°02'0 0.0
2018-Feb-22 00:30N 29°37' W 095°02'0 0.0
2018-Feb-22 00:01N 29°37' W 095°02'0 0.2
2018-Feb-21 23:30N 29°37' W 095°02'0 0.1
2018-Feb-21 23:00N 29°37' W 095°01'3 6.4
2018-Feb-21 22:30N 29°37' W 094°58'3 6.5
2018-Feb-21 22:00N 29°40' W 094°59'1 0.2
2018-Feb-21 14:35N 29°41' W 095°00'0 0.1
2018-Feb-21 14:30N 29°41' W 095°00'0 0.0
2018-Feb-21 14:00N 29°41' W 095°00'0 0.0
2018-Feb-21 13:29N 29°41' W 095°00'0 0.0
2018-Feb-21 13:00N 29°41' W 095°00'0 0.0
2018-Feb-21 12:29N 29°41' W 095°00'0 0.0
2018-Feb-21 12:00N 29°41' W 095°00'0 0.0
2018-Feb-21 11:29N 29°41' W 095°00'0 0.0
2018-Feb-21 11:00N 29°41' W 095°00'0 0.0
2018-Feb-21 10:29N 29°41' W 095°00'0 0.0
2018-Feb-21 09:59N 29°41' W 095°00'0 0.0
2018-Feb-21 09:28N 29°41' W 095°00'0 0.0
2018-Feb-21 08:47N 29°41' W 095°00'0 0.0
2018-Feb-21 08:30N 29°41' W 095°00'0 0.0
2018-Feb-21 07:53N 29°41' W 095°00'1 2.0
2018-Feb-21 07:30N 29°41' W 094°59'3 6.9
2018-Feb-21 07:00N 29°44' W 095°02'1 0.3
2018-Feb-21 02:45N 29°44' W 095°03'7 0.7
2018-Feb-20 16:56N 29°45' W 095°11'5 0.6
2018-Feb-20 08:22N 29°46' W 095°06'0 0.1
2018-Feb-20 08:00N 29°47' W 095°06'0 0.0
2018-Feb-20 07:30N 29°47' W 095°06'0 0.5
2018-Feb-20 06:45N 29°46' W 095°06'1 3.6
2018-Feb-20 06:30N 29°46' W 095°05'0 0.7
2018-Feb-20 05:58N 29°46' W 095°05'2 3.0
2018-Feb-20 05:11N 29°44' W 095°03'0 0.0
2018-Feb-20 04:51N 29°44' W 095°03'0 0.0
2018-Feb-20 04:25N 29°44' W 095°03'0 0.0
2018-Feb-20 03:58N 29°44' W 095°03'0 0.0
2018-Feb-20 02:24N 29°44' W 095°03'0 0.0
2018-Feb-20 01:54N 29°44' W 095°03'0 0.0
2018-Feb-20 01:29N 29°44' W 095°03'0 0.0
2018-Feb-20 00:56N 29°44' W 095°03'0 0.0
2018-Feb-20 00:29N 29°44' W 095°03'0 0.0
2018-Feb-19 23:42N 29°44' W 095°03'0 0.0
2018-Feb-19 23:30N 29°44' W 095°03'0 0.0
2018-Feb-19 22:48N 29°44' W 095°03'0 0.0
2018-Feb-19 22:28N 29°44' W 095°03'0 0.0
2018-Feb-19 21:56N 29°44' W 095°03'0 0.0
2018-Feb-19 21:16N 29°44' W 095°03'0 0.0
2018-Feb-19 21:00N 29°44' W 095°03'0 0.1
2018-Feb-19 19:48N 29°44' W 095°03'4 0.6
2018-Feb-19 13:53N 29°46' W 095°06'0 0.0
2018-Feb-19 12:29N 29°46' W 095°06'0 0.0
2018-Feb-19 10:15N 29°46' W 095°06'0 0.2
2018-Feb-19 09:52N 29°46' W 095°06'0 0.0
2018-Feb-19 09:27N 29°46' W 095°06'0 0.0
2018-Feb-19 08:58N 29°46' W 095°06'0 0.0
2018-Feb-19 08:18N 29°46' W 095°06'0 0.0
2018-Feb-19 02:12N 29°46' W 095°06'0 1.2
2018-Feb-19 01:54N 29°46' W 095°06'2 4.8
2018-Feb-19 01:29N 29°45' W 095°04'2 0.2
2018-Feb-18 18:17N 29°44' W 095°03'0 0.0
2018-Feb-18 17:16N 29°44' W 095°03'0 0.0
2018-Feb-18 17:00N 29°44' W 095°03'0 0.0
2018-Feb-18 16:12N 29°44' W 095°03'0 0.0
2018-Feb-18 15:25N 29°44' W 095°03'0 0.0
2018-Feb-18 14:58N 29°44' W 095°03'0 0.3
2018-Feb-18 14:30N 29°44' W 095°03'0 0.0
2018-Feb-18 13:58N 29°44' W 095°03'0 0.0
2018-Feb-18 12:31N 29°44' W 095°03'0 0.0
2018-Feb-18 10:21N 29°44' W 095°03'0 0.0
2018-Feb-18 09:43N 29°44' W 095°03'0 0.0
2018-Feb-18 09:26N 29°44' W 095°03'0 0.0
2018-Feb-18 07:40N 29°44' W 095°03'0 1.7
2018-Feb-18 07:25N 29°44' W 095°03'3 6.7
2018-Feb-18 06:59N 29°46' W 095°06'1 0.1
2018-Feb-18 02:21N 29°46' W 095°06'0 0.0
2018-Feb-18 01:53N 29°46' W 095°06'0 0.0
2018-Feb-18 01:30N 29°46' W 095°06'0 0.0
2018-Feb-18 01:00N 29°46' W 095°06'0 0.0
2018-Feb-17 22:34N 29°47' W 095°06'0 0.2
2018-Feb-17 22:29N 29°47' W 095°06'0 0.0
2018-Feb-17 18:05N 29°47' W 095°06'0 1.3
2018-Feb-17 18:00N 29°46' W 095°06'0 0.0
2018-Feb-17 17:24N 29°46' W 095°06'0 0.0
2018-Feb-17 16:50N 29°46' W 095°06'0 0.0
2018-Feb-17 16:27N 29°46' W 095°06'0 0.0
2018-Feb-17 15:57N 29°46' W 095°06'0 0.0
2018-Feb-17 15:30N 29°46' W 095°06'0 0.0
2018-Feb-17 14:59N 29°46' W 095°06'0 0.0
2018-Feb-17 14:30N 29°46' W 095°06'0 0.0
2018-Feb-17 14:00N 29°46' W 095°06'0 0.0
2018-Feb-17 13:25N 29°46' W 095°06'0 0.0
2018-Feb-17 12:59N 29°46' W 095°06'0 0.1
2018-Feb-17 12:12N 29°47' W 095°06'1 2.4
2018-Feb-17 11:58N 29°46' W 095°06'1 0.1
2018-Feb-16 22:54N 29°45' W 095°06'1 2.4
2018-Feb-16 22:25N 29°47' W 095°06'0 0.1
2018-Feb-16 22:00N 29°46' W 095°06'0 0.1
2018-Feb-16 21:29N 29°47' W 095°06'0 0.0
2018-Feb-16 20:58N 29°47' W 095°06'0 0.0
2018-Feb-16 20:26N 29°47' W 095°06'0 0.0
2018-Feb-16 19:25N 29°47' W 095°06'0 0.0
2018-Feb-16 18:54N 29°47' W 095°06'0 0.6
2018-Feb-16 18:30N 29°46' W 095°06'1 0.4
2018-Feb-16 16:45N 29°46' W 095°05'1 2.1
2018-Feb-16 16:26N 29°46' W 095°06'0 0.0
2018-Feb-16 13:32N 29°46' W 095°06'3 1.3
2018-Feb-16 11:26N 29°44' W 095°03'1 1.4
2018-Feb-16 11:00N 29°44' W 095°03'0 0.0
2018-Feb-16 10:30N 29°44' W 095°03'0 0.0
2018-Feb-16 09:58N 29°44' W 095°03'0 0.0
2018-Feb-16 09:29N 29°44' W 095°03'0 0.0
2018-Feb-16 09:00N 29°44' W 095°03'0 0.0
2018-Feb-16 08:27N 29°44' W 095°03'0 0.0
2018-Feb-16 07:59N 29°44' W 095°03'0 0.0
2018-Feb-16 07:30N 29°44' W 095°03'0 0.0
2018-Feb-16 07:00N 29°44' W 095°03'0 0.0
2018-Feb-16 06:30N 29°44' W 095°03'0 0.0
2018-Feb-16 05:59N 29°44' W 095°03'0 0.0
2018-Feb-16 05:30N 29°44' W 095°03'0 0.0
2018-Feb-16 05:00N 29°44' W 095°03'0 0.0
2018-Feb-16 04:30N 29°44' W 095°03'0 0.0
2018-Feb-16 04:00N 29°44' W 095°03'0 0.0
2018-Feb-16 03:29N 29°44' W 095°03'0 0.0
2018-Feb-16 02:59N 29°44' W 095°03'0 0.0
2018-Feb-16 02:30N 29°44' W 095°03'0 0.0
2018-Feb-16 02:00N 29°44' W 095°03'0 0.0
2018-Feb-16 01:30N 29°44' W 095°03'0 0.0
2018-Feb-16 01:00N 29°44' W 095°03'0 0.0
2018-Feb-16 00:28N 29°44' W 095°03'0 0.0
2018-Feb-15 23:59N 29°44' W 095°03'0 0.0
2018-Feb-15 23:19N 29°44' W 095°03'0 0.0
2018-Feb-15 17:35N 29°44' W 095°03'0 0.0
2018-Feb-15 17:30N 29°44' W 095°03'0 0.0
2018-Feb-15 16:59N 29°44' W 095°03'0 0.0
2018-Feb-15 16:30N 29°44' W 095°03'0 0.0
2018-Feb-15 15:59N 29°44' W 095°03'0 0.0
2018-Feb-15 15:29N 29°44' W 095°03'0 0.0
2018-Feb-15 14:53N 29°44' W 095°03'0 0.0
2018-Feb-15 14:29N 29°44' W 095°03'0 0.0
2018-Feb-15 14:00N 29°44' W 095°03'0 0.0
2018-Feb-15 13:28N 29°44' W 095°03'0 0.0
2018-Feb-15 12:49N 29°44' W 095°03'0 0.0
2018-Feb-15 12:20N 29°44' W 095°03'0 0.0
2018-Feb-15 11:56N 29°44' W 095°03'0 0.0
2018-Feb-15 11:09N 29°44' W 095°03'0 0.0
2018-Feb-15 11:00N 29°44' W 095°03'0 0.0
2018-Feb-15 10:30N 29°44' W 095°03'0 0.0
2018-Feb-15 10:00N 29°44' W 095°03'0 0.0
2018-Feb-15 09:30N 29°44' W 095°03'0 0.0
2018-Feb-15 09:00N 29°44' W 095°03'0 0.0
2018-Feb-15 08:30N 29°44' W 095°03'0 0.0
2018-Feb-15 07:59N 29°44' W 095°03'0 0.0
2018-Feb-15 07:30N 29°44' W 095°03'0 0.0
2018-Feb-15 06:53N 29°44' W 095°03'0 0.0
2018-Feb-15 06:30N 29°44' W 095°03'0 0.0
2018-Feb-15 06:00N 29°44' W 095°03'0 0.0
2018-Feb-15 05:30N 29°44' W 095°03'0 0.0
2018-Feb-15 05:00N 29°44' W 095°03'0 0.0
2018-Feb-15 04:29N 29°44' W 095°03'0 0.0
2018-Feb-15 04:00N 29°44' W 095°03'0 0.0
2018-Feb-15 03:27N 29°44' W 095°03'0 0.0
2018-Feb-15 03:00N 29°44' W 095°03'0 0.0
2018-Feb-15 02:29N 29°44' W 095°03'0 0.1
2018-Feb-15 01:51N 29°44' W 095°03'0 0.2
2018-Feb-15 01:14N 29°44' W 095°03'0 0.3
2018-Feb-15 00:55N 29°44' W 095°03'2 3.3
2018-Feb-15 00:25N 29°43' W 095°01'2 4.0
2018-Feb-15 00:00N 29°42' W 094°60'2 4.9
2018-Feb-14 23:30N 29°40' W 094°58'3 5.4
2018-Feb-14 23:00N 29°37' W 094°57'3 5.4
2018-Feb-14 22:30N 29°35' W 094°56'3 5.6
2018-Feb-14 22:00N 29°33' W 094°54'12 5.4
2018-Feb-14 19:46N 29°22' W 094°48'1 4.5
2018-Feb-14 19:30N 29°22' W 094°50'2 5.1
2018-Feb-14 19:00N 29°23' W 094°53'1 2.0
2018-Feb-14 18:24N 29°22' W 094°53'  

Dump ship's entire track history